createdAt,value
2023-04-09T00:01:11.918Z,10.26
2023-04-09T00:06:11.643Z,10.43
2023-04-09T00:11:08.507Z,10.82
2023-04-09T00:16:05.956Z,10.66
2023-04-09T00:21:02.933Z,10.86
2023-04-09T00:26:01.246Z,11.34
2023-04-09T00:30:58.343Z,11.08
2023-04-09T00:35:55.651Z,11.58
2023-04-09T00:40:52.629Z,11.60
2023-04-09T00:45:50.922Z,11.48
2023-04-09T00:50:47.841Z,11.17
2023-04-09T00:55:45.251Z,11.12
2023-04-09T01:00:42.205Z,10.90
2023-04-09T01:05:48.102Z,10.76
2023-04-09T01:10:57.735Z,10.72
2023-04-09T01:15:57.351Z,9.99
2023-04-09T01:20:59.396Z,10.39
2023-04-09T01:26:04.934Z,10.46
2023-04-09T01:31:15.520Z,10.58
2023-04-09T01:36:15.499Z,10.55
2023-04-09T01:41:17.094Z,9.90
2023-04-09T01:46:16.578Z,10.06
2023-04-09T01:51:13.991Z,10.17
2023-04-09T01:56:11.333Z,10.19
2023-04-09T02:01:14.425Z,9.98
2023-04-09T02:06:15.716Z,9.94
2023-04-09T02:11:14.633Z,9.68
2023-04-09T02:16:13.955Z,10.21
2023-04-09T02:21:13.145Z,9.92
2023-04-09T02:26:10.733Z,9.56
2023-04-09T02:31:11.055Z,8.85
2023-04-09T02:36:11.635Z,9.02
2023-04-09T02:41:08.589Z,9.07
2023-04-09T02:46:07.108Z,9.14
2023-04-09T02:51:05.769Z,9.19
2023-04-09T02:56:02.969Z,9.13
2023-04-09T03:00:59.951Z,9.49
2023-04-09T03:05:57.705Z,9.44
2023-04-09T03:10:54.709Z,9.07
2023-04-09T03:15:52.843Z,9.41
2023-04-09T03:20:49.795Z,9.52
2023-04-09T03:25:47.528Z,9.54
2023-04-09T03:30:47.085Z,9.26
2023-04-09T03:35:45.100Z,9.42
2023-04-09T03:40:43.344Z,9.46
2023-04-09T03:45:41.160Z,9.00
2023-04-09T03:50:53.604Z,8.22
2023-04-09T03:55:58.957Z,8.83
2023-04-09T04:00:57.914Z,9.07
2023-04-09T04:06:21.022Z,9.32
2023-04-09T04:11:30.264Z,9.45
2023-04-09T04:16:29.576Z,9.46
2023-04-09T04:21:27.277Z,9.67
2023-04-09T04:26:31.105Z,9.21
2023-04-09T04:31:29.023Z,9.86
2023-04-09T04:36:28.622Z,9.97
2023-04-09T04:41:25.674Z,10.11
2023-04-09T04:46:34.032Z,10.12
2023-04-09T04:51:31.331Z,10.06
2023-04-09T04:56:36.582Z,10.22
2023-04-09T05:01:42.823Z,9.94
2023-04-09T05:06:42.434Z,10.19
2023-04-09T05:11:43.769Z,10.30
2023-04-09T05:16:47.351Z,10.15
2023-04-09T05:22:04.166Z,11.11
2023-04-09T05:27:01.372Z,12.34
2023-04-09T05:32:00.766Z,13.88
2023-04-09T05:37:02.952Z,15.37
2023-04-09T05:42:00.525Z,16.43
2023-04-09T05:47:10.570Z,17.83
2023-04-09T05:57:33.926Z,20.23
2023-04-09T06:02:35.911Z,21.15
2023-04-09T06:07:33.181Z,21.64
2023-04-09T06:12:30.218Z,21.61
2023-04-09T06:17:52.069Z,21.67
2023-04-09T06:22:50.676Z,22.24
2023-04-09T06:27:52.175Z,22.36
2023-04-09T06:32:54.937Z,21.15
2023-04-09T06:37:56.099Z,21.21
2023-04-09T06:42:59.186Z,21.27
2023-04-09T06:48:37.757Z,21.40
2023-04-09T06:53:35.241Z,20.65
2023-04-09T06:58:35.071Z,20.83
2023-04-09T07:03:33.248Z,21.19
2023-04-09T07:08:30.587Z,20.98
2023-04-09T07:18:25.575Z,20.55
2023-04-09T07:23:23.314Z,20.54
2023-04-09T07:28:20.628Z,20.93
2023-04-09T07:33:17.819Z,20.87
2023-04-09T07:38:15.744Z,21.01
2023-04-09T07:43:13.386Z,21.40
2023-04-09T07:48:10.229Z,21.02
2023-04-09T07:53:07.131Z,21.45
2023-04-09T07:58:07.225Z,21.24
2023-04-09T08:03:11.062Z,21.15
2023-04-09T08:08:09.743Z,21.78
2023-04-09T08:13:11.507Z,22.33
2023-04-09T08:18:11.329Z,22.13
2023-04-09T08:23:26.464Z,21.59
2023-04-09T08:28:32.083Z,21.24
2023-04-09T08:33:37.636Z,21.15
2023-04-09T08:38:34.618Z,21.43
2023-04-09T08:43:52.511Z,22.14
2023-04-09T08:48:52.650Z,21.78
2023-04-09T08:54:00.768Z,22.09
2023-04-09T08:59:00.535Z,22.30
2023-04-09T09:04:01.193Z,21.64
2023-04-09T09:09:07.376Z,21.33
2023-04-09T09:14:06.167Z,21.13
2023-04-09T09:19:07.030Z,21.22
2023-04-09T09:24:17.098Z,21.32
2023-04-09T09:29:16.753Z,21.49
2023-04-09T09:34:19.971Z,21.42
2023-04-09T09:39:21.690Z,21.19
2023-04-09T09:44:34.169Z,22.21
2023-04-09T09:49:32.839Z,21.77
2023-04-09T09:54:41.656Z,21.90
2023-04-09T09:59:43.420Z,22.53
2023-04-09T10:04:42.588Z,23.19
2023-04-09T10:09:48.758Z,22.59
2023-04-09T10:14:46.252Z,21.52
2023-04-09T10:19:52.855Z,21.48
2023-04-09T10:24:50.706Z,21.60
2023-04-09T10:29:48.790Z,22.17
2023-04-09T10:34:48.684Z,21.72
2023-04-09T10:39:47.378Z,21.11
2023-04-09T10:44:45.008Z,20.80
2023-04-09T10:49:42.769Z,20.53
2023-04-09T10:54:44.825Z,20.26
2023-04-09T10:59:45.042Z,19.81
2023-04-09T11:05:03.393Z,19.38
2023-04-09T11:10:01.491Z,19.41
2023-04-09T11:14:58.614Z,19.71
2023-04-09T11:19:55.926Z,20.03
2023-04-09T11:24:54.561Z,19.90
2023-04-09T11:30:00.216Z,20.07
2023-04-09T11:34:59.370Z,19.86
2023-04-09T11:39:57.979Z,19.10
2023-04-09T11:44:57.666Z,19.24
2023-04-09T11:49:54.810Z,19.18
2023-04-09T11:54:51.783Z,19.01
2023-04-09T11:59:48.769Z,18.56
2023-04-09T12:04:50.612Z,18.72
2023-04-09T12:09:48.638Z,18.86
2023-04-09T12:14:46.326Z,18.79
2023-04-09T12:19:43.237Z,18.79
2023-04-09T12:24:41.022Z,18.68
2023-04-09T12:29:37.989Z,18.28
2023-04-09T12:34:35.560Z,18.45
2023-04-09T12:39:34.280Z,18.38
2023-04-09T12:44:33.251Z,18.24
2023-04-09T12:49:30.647Z,18.77
2023-04-09T12:54:27.621Z,18.92
2023-04-09T12:59:24.688Z,18.47
2023-04-09T13:04:22.353Z,18.42
2023-04-09T13:09:19.440Z,18.11
2023-04-09T13:14:19.337Z,18.21
2023-04-09T13:19:16.415Z,18.02
2023-04-09T13:24:14.836Z,18.10
2023-04-09T13:29:11.915Z,17.97
2023-04-09T13:34:09.972Z,18.01
2023-04-09T13:39:08.532Z,18.00
2023-04-09T13:44:12.120Z,17.66
2023-04-09T14:35:36.859Z,17.21
2023-04-09T14:40:33.818Z,17.50
2023-04-09T14:45:31.006Z,17.35
2023-04-09T14:50:31.900Z,17.42
2023-04-09T14:55:29.891Z,17.40
2023-04-09T15:00:26.702Z,17.46
2023-04-09T15:05:27.645Z,16.94
2023-04-09T15:10:27.521Z,17.04
2023-04-09T15:15:25.374Z,17.19
2023-04-09T15:25:06.279Z,17.12
2023-04-09T15:30:04.080Z,16.97
2023-04-09T15:35:06.852Z,16.93
2023-04-09T15:40:08.686Z,16.76
2023-04-09T15:45:07.018Z,16.53
2023-04-09T15:50:04.753Z,16.41
2023-04-09T15:55:06.067Z,16.14
2023-04-09T16:00:11.747Z,16.11
2023-04-09T16:10:32.593Z,15.95
2023-04-09T16:15:37.367Z,15.95
2023-04-09T16:20:58.910Z,15.62
2023-04-09T16:26:19.480Z,15.79
2023-04-09T16:31:23.052Z,15.65
2023-04-09T16:36:56.328Z,15.67
2023-04-09T16:48:24.887Z,14.96
2023-04-09T16:53:26.151Z,14.80
2023-04-09T16:58:32.518Z,15.04
2023-04-09T17:03:58.102Z,14.96
2023-04-09T17:15:19.515Z,14.19
2023-04-09T17:20:41.758Z,14.45
2023-04-09T17:26:05.033Z,14.45
2023-04-09T17:31:46.099Z,14.11
2023-04-09T17:43:12.878Z,14.07
2023-04-09T18:01:08.110Z,13.27
2023-04-09T18:12:06.585Z,13.44
2023-04-09T18:17:28.619Z,13.25
2023-04-09T18:36:17.779Z,13.20
2023-04-09T18:48:38.459Z,13.10
2023-04-09T18:59:57.995Z,12.85
2023-04-09T19:05:32.037Z,12.68
2023-04-09T19:11:06.520Z,12.63
2023-04-09T19:23:53.261Z,12.80
2023-04-09T19:30:19.086Z,12.38
2023-04-09T19:35:41.575Z,12.46
2023-04-09T19:41:42.087Z,12.67
2023-04-09T19:46:49.326Z,12.74
2023-04-09T19:52:20.632Z,12.57
2023-04-09T19:57:53.162Z,13.01
2023-04-09T20:03:21.524Z,12.96
2023-04-09T20:08:31.390Z,13.33
2023-04-09T20:13:35.415Z,13.47
2023-04-09T20:25:29.870Z,13.68
2023-04-09T20:30:48.993Z,13.09
2023-04-09T20:42:16.365Z,13.39
2023-04-09T20:47:22.878Z,12.96
2023-04-09T20:52:34.360Z,13.36
2023-04-09T20:58:13.097Z,13.24
2023-04-09T21:03:23.938Z,12.72
2023-04-09T21:20:16.862Z,12.61
2023-04-09T21:30:57.495Z,12.89
2023-04-09T21:36:24.575Z,12.71
2023-04-09T21:41:34.410Z,12.29
2023-04-09T21:46:40.118Z,11.92
2023-04-09T21:51:51.157Z,11.78
2023-04-09T21:57:28.126Z,11.99
2023-04-09T22:02:34.968Z,12.34
2023-04-09T22:07:39.778Z,12.39
2023-04-09T22:12:54.685Z,12.37
2023-04-09T22:18:01.991Z,11.80
2023-04-09T22:23:02.778Z,11.52
2023-04-09T22:28:04.853Z,10.85
2023-04-09T22:33:09.200Z,11.33
2023-04-09T22:38:15.417Z,11.01
2023-04-09T22:43:12.906Z,10.84
2023-04-09T22:48:16.306Z,11.11
2023-04-09T22:58:40.651Z,11.46
2023-04-09T23:03:52.094Z,12.08
2023-04-09T23:15:01.719Z,11.89
2023-04-09T23:20:19.686Z,12.44
2023-04-09T23:25:44.114Z,11.98
2023-04-09T23:30:48.345Z,11.87
2023-04-09T23:36:03.347Z,11.69
2023-04-09T23:41:23.540Z,12.06
2023-04-09T23:46:27.994Z,11.66
2023-04-09T23:51:35.057Z,11.90
2023-04-09T23:56:44.488Z,10.94
